sensor_id;sensor_type;location;lat;lon;timestamp;pressure;altitude;pressure_sealevel;temperature;humidity
10466;BME280;5280;42.600;23.556;2023-04-19T00:02:04;92973.75;;;9.22;100.00
10466;BME280;5280;42.600;23.556;2023-04-19T00:04:33;92965.88;;;9.11;100.00
10466;BME280;5280;42.600;23.556;2023-04-19T00:07:02;92976.75;;;9.17;100.00
10466;BME280;5280;42.600;23.556;2023-04-19T00:09:29;92970.06;;;9.13;100.00
10466;BME280;5280;42.600;23.556;2023-04-19T00:11:58;92972.00;;;9.11;100.00
10466;BME280;5280;42.600;23.556;2023-04-19T00:14:27;92964.91;;;9.12;100.00
10466;BME280;5280;42.600;23.556;2023-04-19T00:16:53;92964.47;;;9.06;100.00
10466;BME280;5280;42.600;23.556;2023-04-19T00:19:20;92961.22;;;9.03;100.00
10466;BME280;5280;42.600;23.556;2023-04-19T00:21:47;92951.66;;;8.91;100.00
10466;BME280;5280;42.600;23.556;2023-04-19T00:24:14;92962.31;;;9.00;100.00
10466;BME280;5280;42.600;23.556;2023-04-19T00:26:41;92949.88;;;8.91;100.00
10466;BME280;5280;42.600;23.556;2023-04-19T00:29:08;92952.72;;;8.88;100.00
10466;BME280;5280;42.600;23.556;2023-04-19T00:31:37;92906.78;;;8.59;100.00
10466;BME280;5280;42.600;23.556;2023-04-19T00:34:05;92947.25;;;8.80;100.00
10466;BME280;5280;42.600;23.556;2023-04-19T00:36:34;92942.81;;;8.81;100.00
10466;BME280;5280;42.600;23.556;2023-04-19T00:39:00;92956.84;;;8.70;100.00
10466;BME280;5280;42.600;23.556;2023-04-19T00:41:27;92958.63;;;8.70;100.00
10466;BME280;5280;42.600;23.556;2023-04-19T00:43:54;92953.25;;;8.60;100.00
10466;BME280;5280;42.600;23.556;2023-04-19T00:46:21;92963.91;;;8.70;100.00
10466;BME280;5280;42.600;23.556;2023-04-19T00:48:49;92963.31;;;8.66;100.00
10466;BME280;5280;42.600;23.556;2023-04-19T00:51:16;92965.91;;;8.77;100.00
10466;BME280;5280;42.600;23.556;2023-04-19T00:53:44;92959.22;;;8.73;100.00
10466;BME280;5280;42.600;23.556;2023-04-19T00:56:12;92962.44;;;8.77;100.00
10466;BME280;5280;42.600;23.556;2023-04-19T00:58:44;92961.13;;;8.82;100.00
10466;BME280;5280;42.600;23.556;2023-04-19T01:01:12;92963.75;;;8.82;100.00
10466;BME280;5280;42.600;23.556;2023-04-19T01:03:39;92948.56;;;8.86;100.00
10466;BME280;5280;42.600;23.556;2023-04-19T01:06:07;92963.63;;;8.95;100.00
10466;BME280;5280;42.600;23.556;2023-04-19T01:08:33;92885.00;;;8.57;100.00
10466;BME280;5280;42.600;23.556;2023-04-19T01:11:01;92951.75;;;9.00;100.00
10466;BME280;5280;42.600;23.556;2023-04-19T01:13:27;92955.44;;;9.09;100.00
10466;BME280;5280;42.600;23.556;2023-04-19T01:15:57;92957.34;;;9.07;100.00
10466;BME280;5280;42.600;23.556;2023-04-19T01:18:23;92948.84;;;9.15;100.00
10466;BME280;5280;42.600;23.556;2023-04-19T01:20:50;92949.22;;;9.21;100.00
10466;BME280;5280;42.600;23.556;2023-04-19T01:23:18;92939.16;;;9.15;100.00
10466;BME280;5280;42.600;23.556;2023-04-19T01:25:45;92947.34;;;9.33;100.00
10466;BME280;5280;42.600;23.556;2023-04-19T01:28:12;92945.94;;;9.29;100.00
10466;BME280;5280;42.600;23.556;2023-04-19T01:30:39;92959.66;;;9.43;100.00
10466;BME280;5280;42.600;23.556;2023-04-19T01:33:05;92952.22;;;9.48;100.00
10466;BME280;5280;42.600;23.556;2023-04-19T01:35:32;92952.09;;;9.50;100.00
10466;BME280;5280;42.600;23.556;2023-04-19T01:37:59;92934.97;;;9.44;100.00
10466;BME280;5280;42.600;23.556;2023-04-19T01:40:27;92920.97;;;9.33;100.00
10466;BME280;5280;42.600;23.556;2023-04-19T01:42:54;92943.00;;;9.43;100.00
10466;BME280;5280;42.600;23.556;2023-04-19T01:45:21;92939.06;;;9.37;100.00
10466;BME280;5280;42.600;23.556;2023-04-19T01:47:48;92936.78;;;9.44;100.00
10466;BME280;5280;42.600;23.556;2023-04-19T01:50:15;92931.88;;;9.39;100.00
10466;BME280;5280;42.600;23.556;2023-04-19T01:52:41;92930.47;;;9.35;100.00
10466;BME280;5280;42.600;23.556;2023-04-19T01:55:08;92940.25;;;9.44;100.00
10466;BME280;5280;42.600;23.556;2023-04-19T01:57:37;92932.53;;;9.52;100.00
10466;BME280;5280;42.600;23.556;2023-04-19T02:00:04;92938.41;;;9.56;100.00
10466;BME280;5280;42.600;23.556;2023-04-19T02:02:31;92942.84;;;9.56;100.00
10466;BME280;5280;42.600;23.556;2023-04-19T02:04:58;92933.13;;;9.56;100.00
10466;BME280;5280;42.600;23.556;2023-04-19T02:07:25;92866.41;;;9.13;100.00
10466;BME280;5280;42.600;23.556;2023-04-19T02:09:51;92923.94;;;9.50;100.00
10466;BME280;5280;42.600;23.556;2023-04-19T02:12:18;92923.09;;;9.50;100.00
10466;BME280;5280;42.600;23.556;2023-04-19T02:14:46;92910.66;;;9.41;100.00
10466;BME280;5280;42.600;23.556;2023-04-19T02:17:13;92939.00;;;9.60;100.00
10466;BME280;5280;42.600;23.556;2023-04-19T02:19:40;92915.41;;;9.47;100.00
10466;BME280;5280;42.600;23.556;2023-04-19T02:22:07;92932.22;;;9.46;100.00
10466;BME280;5280;42.600;23.556;2023-04-19T02:24:33;92930.91;;;9.40;100.00
10466;BME280;5280;42.600;23.556;2023-04-19T02:27:00;92938.06;;;9.49;100.00
10466;BME280;5280;42.600;23.556;2023-04-19T02:29:27;92933.63;;;9.50;100.00
10466;BME280;5280;42.600;23.556;2023-04-19T02:31:55;92928.03;;;9.43;100.00
10466;BME280;5280;42.600;23.556;2023-04-19T02:34:22;92935.81;;;9.45;100.00
10466;BME280;5280;42.600;23.556;2023-04-19T02:36:49;92928.75;;;9.45;100.00
10466;BME280;5280;42.600;23.556;2023-04-19T02:39:15;92863.38;;;8.96;100.00
10466;BME280;5280;42.600;23.556;2023-04-19T02:41:43;92933.75;;;9.48;100.00
10466;BME280;5280;42.600;23.556;2023-04-19T02:44:09;92929.44;;;9.47;100.00
10466;BME280;5280;42.600;23.556;2023-04-19T02:46:36;92932.41;;;9.54;100.00
10466;BME280;5280;42.600;23.556;2023-04-19T02:49:05;92934.66;;;9.59;100.00
10466;BME280;5280;42.600;23.556;2023-04-19T02:51:32;92928.66;;;9.57;100.00
10466;BME280;5280;42.600;23.556;2023-04-19T02:53:58;92927.53;;;9.49;100.00
10466;BME280;5280;42.600;23.556;2023-04-19T02:56:25;92908.72;;;9.43;100.00
10466;BME280;5280;42.600;23.556;2023-04-19T02:58:52;92924.16;;;9.47;100.00
10466;BME280;5280;42.600;23.556;2023-04-19T03:01:21;92930.84;;;9.51;100.00
10466;BME280;5280;42.600;23.556;2023-04-19T03:03:48;92872.78;;;9.10;100.00
10466;BME280;5280;42.600;23.556;2023-04-19T03:06:16;92920.00;;;9.45;100.00
10466;BME280;5280;42.600;23.556;2023-04-19T03:08:43;92919.84;;;9.46;100.00
10466;BME280;5280;42.600;23.556;2023-04-19T03:11:10;92917.72;;;9.40;100.00
10466;BME280;5280;42.600;23.556;2023-04-19T03:13:37;92933.56;;;9.40;100.00
10466;BME280;5280;42.600;23.556;2023-04-19T03:16:04;92906.25;;;9.30;100.00
10466;BME280;5280;42.600;23.556;2023-04-19T03:18:32;92935.00;;;9.33;100.00
10466;BME280;5280;42.600;23.556;2023-04-19T03:20:59;92924.72;;;9.30;100.00
10466;BME280;5280;42.600;23.556;2023-04-19T03:23:27;92889.59;;;8.98;100.00
10466;BME280;5280;42.600;23.556;2023-04-19T03:25:54;92923.66;;;9.22;100.00
10466;BME280;5280;42.600;23.556;2023-04-19T03:28:21;92915.44;;;9.15;100.00
10466;BME280;5280;42.600;23.556;2023-04-19T03:30:48;92919.03;;;9.03;100.00
10466;BME280;5280;42.600;23.556;2023-04-19T03:33:14;92921.44;;;9.06;100.00
10466;BME280;5280;42.600;23.556;2023-04-19T03:35:45;92916.53;;;9.01;100.00
10466;BME280;5280;42.600;23.556;2023-04-19T03:38:12;92896.44;;;8.89;100.00
10466;BME280;5280;42.600;23.556;2023-04-19T03:40:40;92914.97;;;8.99;100.00
10466;BME280;5280;42.600;23.556;2023-04-19T03:43:07;92903.88;;;8.84;100.00
10466;BME280;5280;42.600;23.556;2023-04-19T03:45:34;92917.97;;;9.05;100.00
10466;BME280;5280;42.600;23.556;2023-04-19T03:48:01;92912.94;;;9.02;100.00
10466;BME280;5280;42.600;23.556;2023-04-19T03:50:27;92924.78;;;9.08;100.00
10466;BME280;5280;42.600;23.556;2023-04-19T03:52:54;92919.47;;;9.19;100.00
10466;BME280;5280;42.600;23.556;2023-04-19T03:55:21;92917.41;;;9.23;100.00
10466;BME280;5280;42.600;23.556;2023-04-19T03:57:49;92927.59;;;9.27;100.00
10466;BME280;5280;42.600;23.556;2023-04-19T04:00:16;92922.94;;;9.31;100.00
10466;BME280;5280;42.600;23.556;2023-04-19T04:02:43;92922.09;;;9.30;100.00
10466;BME280;5280;42.600;23.556;2023-04-19T04:05:10;92932.84;;;9.27;100.00
10466;BME280;5280;42.600;23.556;2023-04-19T04:07:37;92926.53;;;9.30;100.00
10466;BME280;5280;42.600;23.556;2023-04-19T04:10:04;92924.63;;;9.21;100.00
10466;BME280;5280;42.600;23.556;2023-04-19T04:12:31;92938.41;;;9.24;100.00
10466;BME280;5280;42.600;23.556;2023-04-19T04:15:00;92922.84;;;9.21;100.00
10466;BME280;5280;42.600;23.556;2023-04-19T04:17:26;92938.13;;;9.27;100.00
10466;BME280;5280;42.600;23.556;2023-04-19T04:19:53;92943.78;;;9.23;100.00
10466;BME280;5280;42.600;23.556;2023-04-19T04:22:20;92925.31;;;9.23;100.00
10466;BME280;5280;42.600;23.556;2023-04-19T04:24:46;92939.81;;;9.28;100.00
10466;BME280;5280;42.600;23.556;2023-04-19T04:27:13;92934.31;;;9.31;100.00
10466;BME280;5280;42.600;23.556;2023-04-19T04:29:44;92923.53;;;9.23;100.00
10466;BME280;5280;42.600;23.556;2023-04-19T04:32:12;92932.09;;;9.16;100.00
10466;BME280;5280;42.600;23.556;2023-04-19T04:34:43;92941.31;;;9.10;100.00
10466;BME280;5280;42.600;23.556;2023-04-19T04:37:09;92939.38;;;9.12;100.00
10466;BME280;5280;42.600;23.556;2023-04-19T04:39:36;92941.53;;;9.07;100.00
10466;BME280;5280;42.600;23.556;2023-04-19T04:42:04;92894.44;;;8.71;100.00
10466;BME280;5280;42.600;23.556;2023-04-19T04:44:33;92947.06;;;9.04;100.00
10466;BME280;5280;42.600;23.556;2023-04-19T04:47:00;92941.22;;;9.00;100.00
10466;BME280;5280;42.600;23.556;2023-04-19T04:49:28;92940.13;;;8.92;100.00
10466;BME280;5280;42.600;23.556;2023-04-19T04:51:55;92946.59;;;8.99;100.00
10466;BME280;5280;42.600;23.556;2023-04-19T04:54:21;92937.84;;;8.98;100.00
10466;BME280;5280;42.600;23.556;2023-04-19T04:56:48;92946.88;;;8.96;100.00
10466;BME280;5280;42.600;23.556;2023-04-19T04:59:15;92943.88;;;8.89;100.00
10466;BME280;5280;42.600;23.556;2023-04-19T05:01:42;92941.13;;;8.91;100.00
10466;BME280;5280;42.600;23.556;2023-04-19T05:04:08;92946.97;;;8.94;100.00
10466;BME280;5280;42.600;23.556;2023-04-19T05:06:36;92949.44;;;9.07;100.00
10466;BME280;5280;42.600;23.556;2023-04-19T05:09:05;92948.97;;;9.02;100.00
10466;BME280;5280;42.600;23.556;2023-04-19T05:11:32;92939.63;;;9.09;100.00
10466;BME280;5280;42.600;23.556;2023-04-19T05:13:58;92952.19;;;9.17;100.00
10466;BME280;5280;42.600;23.556;2023-04-19T05:16:25;92947.75;;;9.17;100.00
10466;BME280;5280;42.600;23.556;2023-04-19T05:18:52;92950.91;;;9.11;100.00
10466;BME280;5280;42.600;23.556;2023-04-19T05:21:19;92952.69;;;9.11;100.00
10466;BME280;5280;42.600;23.556;2023-04-19T05:23:47;92958.81;;;9.11;100.00
10466;BME280;5280;42.600;23.556;2023-04-19T05:26:14;92949.97;;;9.01;100.00
10466;BME280;5280;42.600;23.556;2023-04-19T05:28:42;92952.13;;;8.96;100.00
10466;BME280;5280;42.600;23.556;2023-04-19T05:31:17;92956.78;;;8.92;100.00
10466;BME280;5280;42.600;23.556;2023-04-19T05:33:45;92963.16;;;8.90;100.00
10466;BME280;5280;42.600;23.556;2023-04-19T05:36:11;92940.56;;;8.76;100.00
10466;BME280;5280;42.600;23.556;2023-04-19T05:38:38;92958.94;;;8.87;100.00
10466;BME280;5280;42.600;23.556;2023-04-19T05:41:06;92949.88;;;8.80;100.00
10466;BME280;5280;42.600;23.556;2023-04-19T05:43:33;92947.25;;;8.80;100.00
10466;BME280;5280;42.600;23.556;2023-04-19T05:46:00;92960.53;;;8.79;100.00
10466;BME280;5280;42.600;23.556;2023-04-19T05:48:27;92946.19;;;8.72;100.00
10466;BME280;5280;42.600;23.556;2023-04-19T05:50:54;92956.81;;;8.81;100.00
10466;BME280;5280;42.600;23.556;2023-04-19T05:53:22;92961.63;;;8.76;100.00
10466;BME280;5280;42.600;23.556;2023-04-19T05:55:49;92961.72;;;8.75;100.00
10466;BME280;5280;42.600;23.556;2023-04-19T05:58:17;92954.53;;;8.77;100.00
10466;BME280;5280;42.600;23.556;2023-04-19T06:00:45;92950.94;;;8.78;100.00
10466;BME280;5280;42.600;23.556;2023-04-19T06:03:13;92960.28;;;8.82;100.00
10466;BME280;5280;42.600;23.556;2023-04-19T06:05:40;92966.84;;;8.87;100.00
10466;BME280;5280;42.600;23.556;2023-04-19T06:08:07;92951.31;;;8.84;100.00
10466;BME280;5280;42.600;23.556;2023-04-19T06:10:35;92966.28;;;8.84;100.00
10466;BME280;5280;42.600;23.556;2023-04-19T06:13:02;92968.06;;;8.83;100.00
10466;BME280;5280;42.600;23.556;2023-04-19T06:15:31;92959.31;;;8.83;100.00
10466;BME280;5280;42.600;23.556;2023-04-19T06:17:58;92973.69;;;8.90;100.00
10466;BME280;5280;42.600;23.556;2023-04-19T06:20:24;92963.84;;;8.92;100.00
10466;BME280;5280;42.600;23.556;2023-04-19T06:22:51;92963.84;;;8.92;100.00
10466;BME280;5280;42.600;23.556;2023-04-19T06:25:18;92953.81;;;8.86;100.00
10466;BME280;5280;42.600;23.556;2023-04-19T06:27:45;92959.91;;;8.97;100.00
10466;BME280;5280;42.600;23.556;2023-04-19T06:30:12;92961.22;;;9.03;100.00
10466;BME280;5280;42.600;23.556;2023-04-19T06:32:40;92922.34;;;8.73;100.00
10466;BME280;5280;42.600;23.556;2023-04-19T06:35:07;92973.44;;;9.04;100.00
10466;BME280;5280;42.600;23.556;2023-04-19T06:37:34;92973.66;;;9.12;100.00
10466;BME280;5280;42.600;23.556;2023-04-19T06:40:01;92933.34;;;8.89;100.00
10466;BME280;5280;42.600;23.556;2023-04-19T06:42:29;92913.09;;;8.79;100.00
10466;BME280;5280;42.600;23.556;2023-04-19T06:44:56;92977.00;;;9.25;100.00
10466;BME280;5280;42.600;23.556;2023-04-19T06:47:22;92978.91;;;9.23;100.00
10466;BME280;5280;42.600;23.556;2023-04-19T06:49:51;92984.53;;;9.30;100.00
10466;BME280;5280;42.600;23.556;2023-04-19T06:52:18;92966.09;;;9.19;100.00
10466;BME280;5280;42.600;23.556;2023-04-19T06:54:46;92967.66;;;9.21;100.00
10466;BME280;5280;42.600;23.556;2023-04-19T06:57:13;92951.97;;;9.08;100.00
10466;BME280;5280;42.600;23.556;2023-04-19T06:59:40;92989.31;;;9.36;100.00
10466;BME280;5280;42.600;23.556;2023-04-19T07:02:07;92990.25;;;9.46;100.00
10466;BME280;5280;42.600;23.556;2023-04-19T07:04:34;92985.06;;;9.56;100.00
10466;BME280;5280;42.600;23.556;2023-04-19T07:07:03;92924.75;;;9.19;100.00
10466;BME280;5280;42.600;23.556;2023-04-19T07:09:30;92990.06;;;9.59;100.00
10466;BME280;5280;42.600;23.556;2023-04-19T07:11:57;92957.16;;;9.42;100.00
10466;BME280;5280;42.600;23.556;2023-04-19T07:14:24;92987.88;;;9.64;100.00
10466;BME280;5280;42.600;23.556;2023-04-19T07:16:50;92984.03;;;9.68;100.00
10466;BME280;5280;42.600;23.556;2023-04-19T07:19:18;92984.72;;;9.81;100.00
10466;BME280;5280;42.600;23.556;2023-04-19T07:21:45;92981.53;;;9.87;100.00
10466;BME280;5280;42.600;23.556;2023-04-19T07:24:13;92985.88;;;9.88;100.00
10466;BME280;5280;42.600;23.556;2023-04-19T07:26:40;92980.34;;;9.91;100.00
10466;BME280;5280;42.600;23.556;2023-04-19T07:29:07;92988.19;;;10.02;100.00
10466;BME280;5280;42.600;23.556;2023-04-19T07:31:34;92962.06;;;9.99;100.00
10466;BME280;5280;42.600;23.556;2023-04-19T07:34:01;92987.66;;;10.19;100.00
10466;BME280;5280;42.600;23.556;2023-04-19T07:36:27;92980.63;;;10.29;100.00
10466;BME280;5280;42.600;23.556;2023-04-19T07:38:56;92984.81;;;10.32;100.00
10466;BME280;5280;42.600;23.556;2023-04-19T07:41:24;92982.66;;;10.47;100.00
10466;BME280;5280;42.600;23.556;2023-04-19T07:43:50;92983.91;;;10.43;100.00
10466;BME280;5280;42.600;23.556;2023-04-19T07:46:17;92991.31;;;10.49;100.00
10466;BME280;5280;42.600;23.556;2023-04-19T07:48:44;92967.09;;;10.44;100.00
10466;BME280;5280;42.600;23.556;2023-04-19T07:51:12;92985.69;;;10.63;100.00
10466;BME280;5280;42.600;23.556;2023-04-19T07:53:40;92982.59;;;10.58;100.00
10466;BME280;5280;42.600;23.556;2023-04-19T07:56:08;92990.28;;;10.61;100.00
10466;BME280;5280;42.600;23.556;2023-04-19T07:58:37;92991.94;;;10.62;100.00
10466;BME280;5280;42.600;23.556;2023-04-19T08:01:05;92984.50;;;10.76;100.00
10466;BME280;5280;42.600;23.556;2023-04-19T08:03:33;92991.25;;;10.90;100.00
10466;BME280;5280;42.600;23.556;2023-04-19T08:06:00;92988.47;;;11.01;100.00
10466;BME280;5280;42.600;23.556;2023-04-19T08:08:27;92981.69;;;11.08;99.16
10466;BME280;5280;42.600;23.556;2023-04-19T08:10:54;92991.88;;;11.13;100.00
10466;BME280;5280;42.600;23.556;2023-04-19T08:13:21;92973.47;;;11.11;100.00
10466;BME280;5280;42.600;23.556;2023-04-19T08:15:49;92975.19;;;11.22;100.00
10466;BME280;5280;42.600;23.556;2023-04-19T08:18:16;92981.50;;;11.31;100.00
10466;BME280;5280;42.600;23.556;2023-04-19T08:20:45;92982.31;;;11.41;100.00
10466;BME280;5280;42.600;23.556;2023-04-19T08:23:12;92979.44;;;11.53;98.17
10466;BME280;5280;42.600;23.556;2023-04-19T08:25:39;92984.75;;;11.63;95.70
10466;BME280;5280;42.600;23.556;2023-04-19T08:28:06;92984.47;;;11.66;97.07
10466;BME280;5280;42.600;23.556;2023-04-19T08:30:33;92978.63;;;11.72;97.78
10466;BME280;5280;42.600;23.556;2023-04-19T08:33:01;92982.56;;;11.78;97.93
10466;BME280;5280;42.600;23.556;2023-04-19T08:35:28;92949.91;;;11.68;96.76
10466;BME280;5280;42.600;23.556;2023-04-19T08:38:01;92927.34;;;11.54;96.01
10466;BME280;5280;42.600;23.556;2023-04-19T08:40:29;92980.88;;;11.96;93.26
10466;BME280;5280;42.600;23.556;2023-04-19T08:42:56;92961.38;;;11.78;94.27
10466;BME280;5280;42.600;23.556;2023-04-19T08:45:26;92974.06;;;11.93;95.57
10466;BME280;5280;42.600;23.556;2023-04-19T08:47:53;92971.97;;;12.06;94.21
10466;BME280;5280;42.600;23.556;2023-04-19T08:50:23;92964.16;;;12.15;94.74
10466;BME280;5280;42.600;23.556;2023-04-19T08:52:49;92946.59;;;12.23;95.01
10466;BME280;5280;42.600;23.556;2023-04-19T08:55:17;92961.50;;;12.34;89.85
10466;BME280;5280;42.600;23.556;2023-04-19T08:57:44;92950.06;;;12.24;90.97
10466;BME280;5280;42.600;23.556;2023-04-19T09:00:11;92881.81;;;11.89;89.83
10466;BME280;5280;42.600;23.556;2023-04-19T09:02:45;92955.47;;;12.41;88.41
10466;BME280;5280;42.600;23.556;2023-04-19T09:05:13;92963.56;;;12.49;89.71
10466;BME280;5280;42.600;23.556;2023-04-19T09:07:41;92959.91;;;12.60;90.36
10466;BME280;5280;42.600;23.556;2023-04-19T09:10:09;92947.03;;;12.65;88.98
10466;BME280;5280;42.600;23.556;2023-04-19T09:12:38;92951.31;;;12.76;86.93
10466;BME280;5280;42.600;23.556;2023-04-19T09:15:06;92964.41;;;12.87;89.56
10466;BME280;5280;42.600;23.556;2023-04-19T09:17:33;92962.84;;;12.94;87.65
10466;BME280;5280;42.600;23.556;2023-04-19T09:20:00;92961.44;;;13.00;86.72
10466;BME280;5280;42.600;23.556;2023-04-19T09:22:28;92958.56;;;13.11;87.32
10466;BME280;5280;42.600;23.556;2023-04-19T09:24:57;92956.38;;;13.06;86.08
10466;BME280;5280;42.600;23.556;2023-04-19T09:27:26;92958.03;;;13.17;84.39
10466;BME280;5280;42.600;23.556;2023-04-19T09:29:54;92963.81;;;13.30;84.37
10466;BME280;5280;42.600;23.556;2023-04-19T09:32:21;92950.59;;;13.48;83.19
10466;BME280;5280;42.600;23.556;2023-04-19T09:34:53;92929.03;;;13.33;82.28
10466;BME280;5280;42.600;23.556;2023-04-19T09:37:23;92944.69;;;13.54;83.29
10466;BME280;5280;42.600;23.556;2023-04-19T09:39:50;92954.03;;;13.75;82.47
10466;BME280;5280;42.600;23.556;2023-04-19T09:42:19;92925.19;;;13.63;80.67
10466;BME280;5280;42.600;23.556;2023-04-19T09:44:56;92924.00;;;13.93;80.76
10466;BME280;5280;42.600;23.556;2023-04-19T09:47:24;92954.19;;;14.09;76.64
10466;BME280;5280;42.600;23.556;2023-04-19T09:50:07;92957.06;;;14.16;77.69
10466;BME280;5280;42.600;23.556;2023-04-19T09:52:37;92954.78;;;14.21;78.23
10466;BME280;5280;42.600;23.556;2023-04-19T09:55:05;92941.72;;;14.28;76.31
10466;BME280;5280;42.600;23.556;2023-04-19T09:57:34;92940.94;;;14.35;75.76
10466;BME280;5280;42.600;23.556;2023-04-19T10:00:01;92941.19;;;14.42;73.11
10466;BME280;5280;42.600;23.556;2023-04-19T10:02:31;92951.13;;;14.40;75.92
10466;BME280;5280;42.600;23.556;2023-04-19T10:04:58;92946.00;;;14.38;75.26
10466;BME280;5280;42.600;23.556;2023-04-19T10:07:26;92936.84;;;14.41;73.74
10466;BME280;5280;42.600;23.556;2023-04-19T10:09:54;92936.41;;;14.28;72.56
10466;BME280;5280;42.600;23.556;2023-04-19T10:12:25;92932.78;;;13.93;73.99
10466;BME280;5280;42.600;23.556;2023-04-19T10:14:54;92930.66;;;13.97;75.70
10466;BME280;5280;42.600;23.556;2023-04-19T10:17:24;92918.28;;;14.05;77.03
10466;BME280;5280;42.600;23.556;2023-04-19T10:19:56;92921.22;;;14.38;74.93
10466;BME280;5280;42.600;23.556;2023-04-19T10:22:25;92930.78;;;14.48;73.06
10466;BME280;5280;42.600;23.556;2023-04-19T10:25:10;92927.06;;;14.41;70.98
10466;BME280;5280;42.600;23.556;2023-04-19T10:27:38;92921.75;;;14.41;73.94
10466;BME280;5280;42.600;23.556;2023-04-19T10:30:15;92917.53;;;14.56;73.08
10466;BME280;5280;42.600;23.556;2023-04-19T10:32:51;92919.78;;;14.69;71.26
10466;BME280;5280;42.600;23.556;2023-04-19T10:35:19;92917.53;;;14.82;68.21
10466;BME280;5280;42.600;23.556;2023-04-19T10:38:07;92899.94;;;14.89;67.95
10466;BME280;5280;42.600;23.556;2023-04-19T10:40:53;92914.19;;;15.14;68.23
10466;BME280;5280;42.600;23.556;2023-04-19T10:43:21;92901.81;;;15.05;68.69
10466;BME280;5280;42.600;23.556;2023-04-19T10:45:50;92901.03;;;15.13;68.73
10466;BME280;5280;42.600;23.556;2023-04-19T10:48:37;92885.97;;;15.37;65.56
10466;BME280;5280;42.600;23.556;2023-04-19T10:51:10;92899.19;;;15.55;63.70
10466;BME280;5280;42.600;23.556;2023-04-19T10:53:51;92896.91;;;15.68;59.80
10466;BME280;5280;42.600;23.556;2023-04-19T10:56:19;92899.38;;;15.70;59.39
10466;BME280;5280;42.600;23.556;2023-04-19T10:59:11;92890.44;;;15.79;58.04
10466;BME280;5280;42.600;23.556;2023-04-19T11:01:51;92866.44;;;15.87;61.74
10466;BME280;5280;42.600;23.556;2023-04-19T11:04:18;92886.13;;;16.02;60.60
10466;BME280;5280;42.600;23.556;2023-04-19T11:06:59;92889.44;;;15.88;59.14
10466;BME280;5280;42.600;23.556;2023-04-19T11:09:28;92892.59;;;15.83;60.99
10466;BME280;5280;42.600;23.556;2023-04-19T11:12:00;92899.72;;;15.75;57.71
10466;BME280;5280;42.600;23.556;2023-04-19T11:14:30;92892.88;;;15.64;57.69
10466;BME280;5280;42.600;23.556;2023-04-19T11:16:59;92895.31;;;15.41;57.57
10466;BME280;5280;42.600;23.556;2023-04-19T11:19:30;92891.94;;;15.23;59.60
10466;BME280;5280;42.600;23.556;2023-04-19T11:21:57;92885.00;;;15.04;61.77
10466;BME280;5280;42.600;23.556;2023-04-19T11:24:25;92902.00;;;15.03;62.48
10466;BME280;5280;42.600;23.556;2023-04-19T11:26:51;92871.19;;;14.93;62.87
10466;BME280;5280;42.600;23.556;2023-04-19T11:29:18;92904.31;;;14.98;63.02
10466;BME280;5280;42.600;23.556;2023-04-19T11:31:47;92895.84;;;15.03;60.08
10466;BME280;5280;42.600;23.556;2023-04-19T11:34:15;92843.47;;;14.70;62.47
10466;BME280;5280;42.600;23.556;2023-04-19T11:36:48;92889.03;;;15.08;59.83
10466;BME280;5280;42.600;23.556;2023-04-19T11:39:14;92897.88;;;15.09;59.41
10466;BME280;5280;42.600;23.556;2023-04-19T11:41:41;92886.88;;;15.04;60.44
10466;BME280;5280;42.600;23.556;2023-04-19T11:44:15;92895.22;;;15.17;59.72
10466;BME280;5280;42.600;23.556;2023-04-19T11:46:56;92895.34;;;15.07;63.74
10466;BME280;5280;42.600;23.556;2023-04-19T11:49:29;92881.22;;;15.15;65.59
10466;BME280;5280;42.600;23.556;2023-04-19T11:51:58;92898.22;;;15.14;64.21
10466;BME280;5280;42.600;23.556;2023-04-19T11:54:25;92886.75;;;15.14;63.82
10466;BME280;5280;42.600;23.556;2023-04-19T11:57:02;92878.69;;;14.97;66.01
10466;BME280;5280;42.600;23.556;2023-04-19T11:59:29;92844.84;;;14.74;65.56
10466;BME280;5280;42.600;23.556;2023-04-19T12:02:04;92895.59;;;14.88;65.50
10466;BME280;5280;42.600;23.556;2023-04-19T12:04:32;92894.72;;;14.80;65.10
10466;BME280;5280;42.600;23.556;2023-04-19T12:07:01;92892.59;;;14.57;65.60
10466;BME280;5280;42.600;23.556;2023-04-19T12:09:29;92896.03;;;14.50;64.64
10466;BME280;5280;42.600;23.556;2023-04-19T12:11:56;92897.75;;;14.33;65.26
10466;BME280;5280;42.600;23.556;2023-04-19T12:14:22;92895.47;;;14.20;67.80
10466;BME280;5280;42.600;23.556;2023-04-19T12:17:07;92896.56;;;14.10;68.28
10466;BME280;5280;42.600;23.556;2023-04-19T12:19:36;92889.22;;;14.04;68.46
10466;BME280;5280;42.600;23.556;2023-04-19T12:22:08;92867.22;;;13.94;69.07
10466;BME280;5280;42.600;23.556;2023-04-19T12:24:35;92847.41;;;13.88;70.55
10466;BME280;5280;42.600;23.556;2023-04-19T12:27:02;92865.34;;;14.12;69.38
10466;BME280;5280;42.600;23.556;2023-04-19T12:29:30;92882.00;;;14.40;69.89
10466;BME280;5280;42.600;23.556;2023-04-19T12:31:57;92879.28;;;14.49;69.36
10466;BME280;5280;42.600;23.556;2023-04-19T12:34:41;92872.09;;;14.50;69.10
10466;BME280;5280;42.600;23.556;2023-04-19T12:37:08;92878.72;;;14.46;68.76
10466;BME280;5280;42.600;23.556;2023-04-19T12:39:35;92881.50;;;14.36;67.86
10466;BME280;5280;42.600;23.556;2023-04-19T12:42:02;92892.44;;;14.33;66.80
10466;BME280;5280;42.600;23.556;2023-04-19T12:44:30;92890.72;;;14.24;67.01
10466;BME280;5280;42.600;23.556;2023-04-19T12:46:56;92891.88;;;14.30;65.72
10466;BME280;5280;42.600;23.556;2023-04-19T12:49:23;92896.03;;;14.24;67.57
10466;BME280;5280;42.600;23.556;2023-04-19T12:51:54;92883.25;;;14.10;67.27
10466;BME280;5280;42.600;23.556;2023-04-19T12:54:21;92889.75;;;14.07;68.58
10466;BME280;5280;42.600;23.556;2023-04-19T12:56:47;92890.44;;;13.92;68.35
10466;BME280;5280;42.600;23.556;2023-04-19T12:59:14;92907.91;;;13.76;67.92
10466;BME280;5280;42.600;23.556;2023-04-19T13:01:41;92872.31;;;13.52;66.76
10466;BME280;5280;42.600;23.556;2023-04-19T13:04:08;92883.38;;;13.65;68.86
10466;BME280;5280;42.600;23.556;2023-04-19T13:06:37;92819.47;;;13.23;70.15